page 5129 of 1009767 registered users

eBook PostsUsers

  1. 0bread9beef registered @ 2012-12-28 00:45:02, last login @ 2012-12-28 00:45:02
  2. 0help67slope registered @ 2012-12-28 00:47:57, last login @ 2012-12-28 00:47:57
  3. 0zebra57pickle registered @ 2012-12-28 00:49:02, last login @ 2012-12-28 00:49:02
  4. 0linknickel25 registered @ 2012-12-28 00:50:04, last login @ 2012-12-28 00:50:04
  5. 0roof81sneeze registered @ 2012-12-28 00:50:19, last login @ 2012-12-28 00:50:19
  6. 0selectrabbit45 registered @ 2012-12-28 00:50:43, last login @ 2012-12-28 00:50:43
  7. 0edwardserver09 registered @ 2012-12-28 00:50:49, last login @ 2012-12-28 00:50:49
  8. 0perchcactus68 registered @ 2012-12-28 00:52:02, last login @ 2012-12-28 00:52:02
  9. 0Gaytan registered @ 2012-12-28 00:52:47, last login @ 2012-12-28 00:52:47
  10. 0liverage0 registered @ 2012-12-28 00:53:52, last login @ 2012-12-28 00:53:52
  11. 0beaveralibi02 registered @ 2012-12-28 00:54:45, last login @ 2012-12-28 00:54:45
  12. 0granites8 registered @ 2012-12-28 00:54:49, last login @ 2012-12-28 00:54:49
  13. 0thread37novel registered @ 2012-12-28 00:55:05, last login @ 2012-12-28 00:55:05
  14. 0ipqxfsblr registered @ 2012-12-28 00:55:56, last login @ 2012-12-28 00:55:56
  15. 0singlewillow3 registered @ 2012-12-28 00:56:12, last login @ 2012-12-28 00:56:12
  16. 0legal5latex registered @ 2012-12-28 00:56:32, last login @ 2012-12-28 00:56:32
  17. 0soup55beaver registered @ 2012-12-28 00:59:12, last login @ 2012-12-28 00:59:12
  18. 0nationside3 registered @ 2012-12-28 01:03:01, last login @ 2012-12-28 01:03:01
  19. 0botanyground08 registered @ 2012-12-28 01:03:29, last login @ 2012-12-28 01:03:29
  20. 0crack8hole registered @ 2012-12-28 01:05:54, last login @ 2012-12-28 01:05:54
  21. 0ownerlamp25 registered @ 2012-12-28 01:07:49, last login @ 2012-12-28 01:07:49
  22. 0slippoland8 registered @ 2012-12-28 01:09:21, last login @ 2012-12-28 01:09:21
  23. 0paint6team registered @ 2012-12-28 01:09:45, last login @ 2012-12-28 01:09:45
  24. 0japan06shell registered @ 2012-12-28 01:10:07, last login @ 2012-12-28 01:10:07
  25. 0woolenwalrus0 registered @ 2012-12-28 01:11:52, last login @ 2012-12-28 01:11:52
  26. 0egyptdew3 registered @ 2012-12-28 01:12:39, last login @ 2012-12-28 01:12:39
  27. 0oboe13ghost registered @ 2012-12-28 01:12:54, last login @ 2012-12-28 01:12:54
  28. 0switchfruit31 registered @ 2012-12-28 01:13:20, last login @ 2012-12-28 01:13:20
  29. 0dirtgallon5 registered @ 2012-12-28 01:13:55, last login @ 2012-12-28 01:13:55
  30. 0peony5office registered @ 2012-12-28 01:15:42, last login @ 2012-12-28 01:15:42
  31. 0bearcone2 registered @ 2012-12-28 01:17:28, last login @ 2012-12-28 01:17:28
  32. 0kishanmarble8 registered @ 2012-12-28 01:18:07, last login @ 2012-12-28 01:26:18
  33. 0clutchfire6 registered @ 2012-12-28 01:20:52, last login @ 2012-12-28 01:20:52
  34. 0whitefired25 registered @ 2012-12-28 01:21:29, last login @ 2012-12-28 01:21:29
  35. 0leafclef84 registered @ 2012-12-28 01:21:51, last login @ 2012-12-28 01:21:51
  36. 0flagpuppy22 registered @ 2012-12-28 01:22:03, last login @ 2012-12-28 01:22:03
  37. 0namehub33 registered @ 2012-12-28 01:25:19, last login @ 2012-12-28 01:25:19
  38. 0beet8raven registered @ 2012-12-28 01:25:22, last login @ 2012-12-28 01:25:22
  39. 0skill8eggnog registered @ 2012-12-28 01:25:48, last login @ 2012-12-28 01:25:48
  40. 0alley7condor registered @ 2012-12-28 01:27:03, last login @ 2012-12-28 01:27:03
  41. 0giantbirch37 registered @ 2012-12-28 01:27:07, last login @ 2012-12-28 01:27:07
  42. 0sphere2border registered @ 2012-12-28 01:28:39, last login @ 2012-12-28 01:28:39
  43. 0leek2double registered @ 2012-12-28 01:29:31, last login @ 2012-12-28 01:29:31
  44. 0cellar5single registered @ 2012-12-28 01:30:16, last login @ 2012-12-28 01:30:16
  45. 0woolen77nerve registered @ 2012-12-28 01:30:23, last login @ 2012-12-28 01:30:23
  46. 0gzmk registered @ 2012-12-28 01:32:15, last login @ 2012-12-28 01:37:26
  47. 0summer57carol registered @ 2012-12-28 01:32:45, last login @ 2012-12-28 01:32:45
  48. 0tenor3david registered @ 2012-12-28 01:34:38, last login @ 2012-12-28 01:34:38
  49. 0meter96block registered @ 2012-12-28 01:36:02, last login @ 2012-12-28 01:36:02
  50. 0trowelcougar3 registered @ 2012-12-28 01:37:28, last login @ 2012-12-28 01:37:28
  51. 0vesselocean3 registered @ 2012-12-28 01:38:25, last login @ 2012-12-28 01:38:25
  52. 0nepal37lathe registered @ 2012-12-28 01:41:40, last login @ 2012-12-28 01:41:40
  53. 0sandstone8 registered @ 2012-12-28 01:41:44, last login @ 2012-12-28 01:47:34
  54. 0threadferry38 registered @ 2012-12-28 01:42:55, last login @ 2012-12-28 01:42:55
  55. 0gate0output registered @ 2012-12-28 01:44:39, last login @ 2012-12-28 01:44:39
  56. 0citycat5 registered @ 2012-12-28 01:45:40, last login @ 2012-12-28 01:45:40
  57. 0galleydrum58 registered @ 2012-12-28 01:46:26, last login @ 2012-12-28 01:46:26
  58. 0tempersong8 registered @ 2012-12-28 01:47:02, last login @ 2012-12-28 01:47:02
  59. 0loaf6perch registered @ 2012-12-28 01:47:13, last login @ 2012-12-28 01:47:13
  60. 0twig3band registered @ 2012-12-28 01:47:20, last login @ 2012-12-28 01:47:20
  61. 0nameincome1 registered @ 2012-12-28 01:48:06, last login @ 2012-12-28 01:48:06
  62. 0sheepalley59 registered @ 2012-12-28 01:49:19, last login @ 2012-12-28 01:49:19
  63. 0puffin2helen registered @ 2012-12-28 01:51:27, last login @ 2012-12-28 01:51:27
  64. 0oyster09shell registered @ 2012-12-28 01:52:04, last login @ 2012-12-28 01:52:04
  65. 0kalealibi5 registered @ 2012-12-28 01:55:03, last login @ 2012-12-28 01:55:03
  66. 0feastiron7 registered @ 2012-12-28 01:56:17, last login @ 2012-12-28 01:56:17
  67. 0pilotnight19 registered @ 2012-12-28 01:56:55, last login @ 2012-12-28 01:56:55
  68. 0budgetquilt43 registered @ 2012-12-28 01:57:05, last login @ 2012-12-28 01:57:05
  69. 0shadowbrick58 registered @ 2012-12-28 01:59:05, last login @ 2012-12-28 01:59:05
  70. 0birdswiss4 registered @ 2012-12-28 02:01:32, last login @ 2012-12-28 02:01:32
  71. 0swim0raft registered @ 2012-12-28 02:02:30, last login @ 2012-12-28 02:34:29
  72. 0maytoast1 registered @ 2012-12-28 02:02:47, last login @ 2012-12-28 02:02:47
  73. 0porterfarmer82 registered @ 2012-12-28 02:03:38, last login @ 2012-12-28 02:37:48
  74. 0toastvacuum5 registered @ 2012-12-28 02:04:30, last login @ 2012-12-28 02:04:30
  75. 0fruittail9 registered @ 2012-12-28 02:07:01, last login @ 2012-12-28 02:07:01
  76. 0raft67bagel registered @ 2012-12-28 02:07:36, last login @ 2012-12-28 02:07:36
  77. 0seedersailor62 registered @ 2012-12-28 02:09:10, last login @ 2012-12-28 02:09:10
  78. 0stewhockey12 registered @ 2012-12-28 02:10:25, last login @ 2012-12-28 02:10:25
  79. 0bethelihem registered @ 2012-12-28 02:10:57, last login @ 2012-12-28 02:10:57
  80. 0riddlemakeup05 registered @ 2012-12-28 02:11:26, last login @ 2012-12-28 02:11:26
  81. 0expert16liver registered @ 2012-12-28 02:11:49, last login @ 2012-12-28 02:11:49
  82. 0wave2aries registered @ 2012-12-28 02:12:19, last login @ 2012-12-28 02:12:19
  83. 0bell45bear registered @ 2012-12-28 02:12:29, last login @ 2012-12-28 02:12:29
  84. 0pot4paint registered @ 2012-12-28 02:14:14, last login @ 2012-12-28 02:14:14
  85. 0fall6babies registered @ 2012-12-28 02:15:40, last login @ 2012-12-28 02:15:40
  86. 0maskstring59 registered @ 2012-12-28 02:16:35, last login @ 2012-12-28 02:16:35
  87. 0coach45barge registered @ 2012-12-28 02:17:33, last login @ 2012-12-28 02:39:00
  88. 0ugglan29 registered @ 2012-12-28 02:18:09, last login @ 2012-12-28 02:18:09
  89. 0polish94badge registered @ 2012-12-28 02:18:16, last login @ 2012-12-28 02:18:16
  90. 0move15list registered @ 2012-12-28 02:19:39, last login @ 2012-12-28 02:19:39
  91. 0lightbun0 registered @ 2012-12-28 02:19:43, last login @ 2012-12-28 02:19:43
  92. 0bodypeak15 registered @ 2012-12-28 02:20:03, last login @ 2012-12-28 02:20:03
  93. 0mintiris7 registered @ 2012-12-28 02:20:33, last login @ 2012-12-28 02:20:33
  94. 0summerthrill3 registered @ 2012-12-28 02:21:03, last login @ 2012-12-28 02:21:03
  95. 0yammonday87 registered @ 2012-12-28 02:21:57, last login @ 2012-12-28 02:21:57
  96. 0sand32beat registered @ 2012-12-28 02:23:19, last login @ 2012-12-28 02:23:19
  97. 0kettlesound5 registered @ 2012-12-28 02:28:02, last login @ 2012-12-28 02:28:02
  98. 0golf75stove registered @ 2012-12-28 02:28:57, last login @ 2012-12-28 02:28:57
  99. 0Katiyarevi registered @ 2012-12-28 02:30:43, last login @ 2012-12-28 02:30:43
  100. 0karitoal1 registered @ 2012-12-28 02:31:21, last login @ 2012-12-28 02:31:21
  101. 0grape8oboe registered @ 2012-12-28 02:33:54, last login @ 2012-12-28 02:33:54

More...

[5139] [5138] [5137] [5136] [5135] [5134] [5133] [5132] [5131] [5130] [5129] [5128] [5127] [5126] [5125] [5124] [5123] [5122] [5121] [5120] ...[1]
Back to Top